Accueil
METAR-TAF:

METAR-TAF

Aéroports :

Aéroport international de Lusaka

Lusaka, Zambie

latitude: 15-19-51S, longitude: 028-27-09E, altitude: 1152 m

Observation

Le bulletin a été fait il y a 1 heure et 8 minutes, à 07:00 UTC
Vent 3 kt de ouest/nord-ouest
Température 25°C
Humidité 69%
Pression 1018 hPa
Visibilité 10 km ou plus
Quelques nuages à une hauteur de 2000 ft
Quelques nuages à une hauteur de 10000 ft

METAR: FLKK 230700Z 30003KT 9999 FEW020 FEW100 25/19 Q1018

Heure: 10:08 (08:08 UTC)


TAF: absent

Observations et prévisions météorologiques de plus de 4000 aéroports (messages METAR et TAF).

Les stations disponibles sont représentées par des disques jaunes et rouges sur la carte.

Passer la souris dessus pour voir le nom de la station.

Cliquer dessus pour voir les observations et prévisions météorologiques.

Pour changer de carte: cliquez sur les boutons verts avec une croix noire pour zoomer, sur le bouton vert avec un tiret pour effectuer un zoom arrière, ou sur les flèches vertes pour les cartes adjacentes.


METAR-TAF: